createdAt,value
2018-01-12T00:01:23.292Z,57.20
2018-01-12T00:03:51.640Z,57.57
2018-01-12T00:06:20.088Z,57.67
2018-01-12T00:08:48.484Z,57.20
2018-01-12T00:11:16.827Z,57.37
2018-01-12T00:13:45.215Z,57.87
2018-01-12T00:16:13.603Z,57.83
2018-01-12T00:18:41.992Z,56.57
2018-01-12T00:21:10.466Z,54.90
2018-01-12T00:23:38.949Z,53.17
2018-01-12T00:26:07.315Z,55.50
2018-01-12T00:28:35.700Z,56.30
2018-01-12T00:31:04.056Z,54.23
2018-01-12T00:33:32.406Z,56.90
2018-01-12T00:36:01.178Z,53.83
2018-01-12T00:38:30.300Z,54.23
2018-01-12T00:40:58.643Z,58.17
2018-01-12T00:43:27.020Z,55.80
2018-01-12T00:45:55.388Z,56.67
2018-01-12T00:48:23.764Z,53.83
2018-01-12T00:50:52.416Z,52.63
2018-01-12T00:53:20.788Z,52.77
2018-01-12T00:55:49.156Z,54.20
2018-01-12T00:58:17.510Z,52.07
2018-01-12T01:00:46.268Z,52.73
2018-01-12T01:03:14.851Z,50.60
2018-01-12T01:05:43.224Z,55.03
2018-01-12T01:08:11.588Z,58.20
2018-01-12T01:10:39.954Z,54.47
2018-01-12T01:13:08.308Z,56.47
2018-01-12T01:15:37.763Z,55.40
2018-01-12T01:18:06.435Z,55.37
2018-01-12T01:20:34.837Z,53.30
2018-01-12T01:23:03.388Z,53.13
2018-01-12T01:25:31.749Z,53.10
2018-01-12T01:28:00.164Z,52.60
2018-01-12T01:30:28.528Z,57.80
2018-01-12T01:32:56.893Z,55.90
2018-01-12T01:35:25.262Z,55.20
2018-01-12T01:37:53.804Z,58.17
2018-01-12T01:40:22.175Z,60.70
2018-01-12T01:42:50.534Z,59.47
2018-01-12T01:45:19.028Z,60.37
2018-01-12T01:47:47.387Z,58.33
2018-01-12T01:50:15.783Z,55.40
2018-01-12T01:52:44.152Z,62.70
2018-01-12T01:55:12.499Z,57.23
2018-01-12T01:57:41.021Z,57.60
2018-01-12T02:00:09.372Z,58.93
2018-01-12T02:02:37.728Z,57.27
2018-01-12T02:05:06.539Z,57.07
2018-01-12T02:07:34.900Z,57.43
2018-01-12T02:10:03.642Z,56.50
2018-01-12T02:12:32.013Z,54.73
2018-01-12T02:15:00.393Z,56.53
2018-01-12T02:17:28.768Z,53.67
2018-01-12T02:19:57.118Z,56.67
2018-01-12T02:22:25.536Z,56.97
2018-01-12T02:24:54.004Z,57.40
2018-01-12T02:27:22.388Z,54.53
2018-01-12T02:29:50.768Z,55.47
2018-01-12T02:32:19.135Z,55.03
2018-01-12T02:34:47.489Z,58.07
2018-01-12T02:37:15.906Z,58.00
2018-01-12T02:39:44.280Z,58.90
2018-01-12T02:42:12.780Z,54.97
2018-01-12T02:44:41.926Z,59.50
2018-01-12T02:47:10.331Z,53.43
2018-01-12T02:49:38.708Z,54.87
2018-01-12T02:52:07.061Z,53.90
2018-01-12T02:54:35.432Z,54.30
2018-01-12T02:57:03.866Z,52.07
2018-01-12T02:59:32.218Z,52.57
2018-01-12T03:02:00.573Z,52.67
2018-01-12T03:04:28.991Z,58.10
2018-01-12T03:06:57.368Z,54.93
2018-01-12T03:09:25.712Z,57.17
2018-01-12T03:11:54.088Z,58.50
2018-01-12T03:14:22.508Z,59.97
2018-01-12T03:16:50.880Z,57.70
2018-01-12T03:19:19.307Z,56.10
2018-01-12T03:21:48.040Z,56.93
2018-01-12T03:24:16.401Z,54.70
2018-01-12T03:26:44.769Z,57.13
2018-01-12T03:29:13.160Z,57.60
2018-01-12T03:31:41.568Z,57.90
2018-01-12T03:34:09.936Z,55.40
2018-01-12T03:36:38.289Z,50.97
2018-01-12T03:39:06.696Z,55.10
2018-01-12T03:41:35.051Z,57.30
2018-01-12T03:44:03.440Z,57.93
2018-01-12T03:46:31.793Z,57.67
2018-01-12T03:49:00.627Z,58.57
2018-01-12T03:51:28.988Z,59.30
2018-01-12T03:53:57.376Z,57.90
2018-01-12T03:56:25.747Z,58.80
2018-01-12T03:58:54.144Z,62.77
2018-01-12T04:01:22.516Z,61.67
2018-01-12T04:03:50.892Z,57.50
2018-01-12T04:06:19.283Z,57.40
2018-01-12T04:08:47.759Z,58.20
2018-01-12T04:11:16.112Z,59.30
2018-01-12T04:13:44.475Z,60.87
2018-01-12T04:16:12.840Z,57.97
2018-01-12T04:18:41.196Z,60.67
2018-01-12T04:21:09.593Z,60.00
2018-01-12T04:23:38.444Z,60.67
2018-01-12T04:26:06.800Z,60.60
2018-01-12T04:28:35.195Z,63.13
2018-01-12T04:31:03.600Z,63.40
2018-01-12T04:33:31.979Z,66.30
2018-01-12T04:36:00.435Z,66.77
2018-01-12T04:38:28.812Z,63.50
2018-01-12T04:40:57.205Z,65.90
2018-01-12T04:43:25.555Z,65.33
2018-01-12T04:45:53.962Z,65.60
2018-01-12T04:48:22.320Z,61.43
2018-01-12T04:50:50.697Z,60.90
2018-01-12T04:53:19.056Z,56.50
2018-01-12T04:55:47.527Z,57.67
2018-01-12T04:58:16.364Z,60.67
2018-01-12T05:00:45.606Z,56.40
2018-01-12T05:03:14.031Z,56.70
2018-01-12T05:05:42.428Z,56.77
2018-01-12T05:08:10.793Z,56.73
2018-01-12T05:10:39.168Z,57.53
2018-01-12T05:13:07.524Z,57.37
2018-01-12T05:15:35.950Z,56.33
2018-01-12T05:18:04.300Z,57.10
2018-01-12T05:20:32.680Z,55.43
2018-01-12T05:23:01.086Z,52.60
2018-01-12T05:25:29.546Z,56.70
2018-01-12T05:27:57.892Z,52.83
2018-01-12T05:30:26.259Z,49.80
2018-01-12T05:32:55.000Z,49.97
2018-01-12T05:35:23.369Z,53.73
2018-01-12T05:37:51.748Z,52.77
2018-01-12T05:40:20.205Z,48.40
2018-01-12T05:42:48.560Z,51.97
2018-01-12T05:45:17.336Z,49.97
2018-01-12T05:47:46.202Z,52.77
2018-01-12T05:50:14.661Z,49.53
2018-01-12T05:52:43.050Z,49.27
2018-01-12T05:55:11.657Z,47.60
2018-01-12T05:57:40.095Z,45.73
2018-01-12T06:00:08.488Z,49.23
2018-01-12T06:02:54.676Z,48.30
2018-01-12T06:05:41.016Z,48.90
2018-01-12T06:08:09.363Z,47.20
2018-01-12T06:10:37.727Z,47.70
2018-01-12T06:13:06.137Z,47.77
2018-01-12T06:15:34.495Z,47.33
2018-01-12T06:18:02.858Z,44.70
2018-01-12T06:20:31.255Z,46.30
2018-01-12T06:22:59.621Z,46.27
2018-01-12T06:25:27.985Z,45.50
2018-01-12T06:27:56.354Z,43.73
2018-01-12T06:30:24.780Z,40.13
2018-01-12T06:32:53.148Z,40.93
2018-01-12T06:35:21.510Z,42.77
2018-01-12T06:37:49.899Z,40.53
2018-01-12T06:40:18.268Z,39.10
2018-01-12T06:42:46.661Z,40.13
2018-01-12T06:45:15.024Z,42.27
2018-01-12T06:47:43.376Z,41.23
2018-01-12T06:50:12.216Z,39.70
2018-01-12T06:52:40.580Z,40.00
2018-01-12T06:55:08.931Z,40.10
2018-01-12T06:57:37.911Z,41.60
2018-01-12T07:00:06.714Z,38.60
2018-01-12T07:02:35.168Z,38.40
2018-01-12T07:05:03.612Z,34.30
2018-01-12T07:07:32.022Z,37.90
2018-01-12T07:10:00.380Z,38.37
2018-01-12T07:12:28.735Z,35.70
2018-01-12T07:14:57.135Z,36.93
2018-01-12T07:17:25.714Z,36.77
2018-01-12T07:19:54.067Z,40.83
2018-01-12T07:22:27.787Z,39.77
2018-01-12T07:24:56.159Z,39.00
2018-01-12T07:27:24.573Z,40.73
2018-01-12T07:29:52.892Z,39.70
2018-01-12T07:32:21.419Z,41.67
2018-01-12T07:34:49.783Z,38.53
2018-01-12T07:37:18.144Z,38.90
2018-01-12T07:39:46.491Z,38.83
2018-01-12T07:42:15.329Z,39.20
2018-01-12T07:44:43.676Z,37.13
2018-01-12T07:47:12.096Z,36.17
2018-01-12T07:49:40.455Z,35.47
2018-01-12T07:52:08.849Z,35.60
2018-01-12T07:54:37.245Z,39.27
2018-01-12T07:57:05.735Z,36.90
2018-01-12T07:59:34.089Z,39.03
2018-01-12T08:02:07.961Z,36.03
2018-01-12T08:04:36.323Z,35.50
2018-01-12T08:07:05.435Z,34.77
2018-01-12T08:09:33.781Z,34.73
2018-01-12T08:12:02.136Z,35.40
2018-01-12T08:14:30.493Z,36.20
2018-01-12T08:16:58.860Z,33.10
2018-01-12T08:19:27.214Z,38.50
2018-01-12T08:21:56.052Z,36.50
2018-01-12T08:24:24.424Z,35.33
2018-01-12T08:26:52.789Z,38.00
2018-01-12T08:29:21.196Z,36.70
2018-01-12T08:31:49.660Z,36.40
2018-01-12T08:34:18.038Z,36.37
2018-01-12T08:36:46.396Z,36.23
2018-01-12T08:39:14.803Z,35.80
2018-01-12T08:41:43.174Z,35.47
2018-01-12T08:44:11.514Z,36.77
2018-01-12T08:46:40.299Z,37.20
2018-01-12T08:49:09.890Z,37.30
2018-01-12T08:51:38.655Z,34.07
2018-01-12T08:54:07.051Z,36.07
2018-01-12T08:56:35.400Z,33.90
2018-01-12T08:59:03.780Z,33.30
2018-01-12T09:01:32.264Z,34.93
2018-01-12T09:04:00.615Z,34.90
2018-01-12T09:06:28.967Z,34.80
2018-01-12T09:08:58.413Z,32.90
2018-01-12T09:11:26.771Z,34.80
2018-01-12T09:13:57.254Z,36.47
2018-01-12T09:16:28.735Z,33.30
2018-01-12T09:19:29.269Z,32.33
2018-01-12T09:21:58.101Z,33.37
2018-01-12T09:24:26.438Z,35.43
2018-01-12T09:26:54.857Z,34.40
2018-01-12T09:29:23.236Z,34.70
2018-01-12T09:31:52.442Z,35.67
2018-01-12T09:34:38.519Z,36.27
2018-01-12T09:37:06.872Z,34.30
2018-01-12T09:39:43.266Z,37.70
2018-01-12T09:42:11.623Z,34.03
2018-01-12T09:44:40.031Z,34.83
2018-01-12T09:47:21.898Z,32.97
2018-01-12T09:49:50.277Z,32.70
2018-01-12T09:52:18.685Z,32.73
2018-01-12T09:54:47.141Z,33.50
2018-01-12T09:57:15.550Z,33.43
2018-01-12T09:59:44.695Z,34.70
2018-01-12T10:02:13.563Z,34.47
2018-01-12T10:04:41.916Z,33.50
2018-01-12T10:07:19.913Z,32.93
2018-01-12T10:09:50.149Z,34.23
2018-01-12T10:12:18.465Z,34.90
2018-01-12T10:14:47.302Z,33.17
2018-01-12T10:17:15.745Z,36.03
2018-01-12T10:23:04.178Z,32.47
2018-01-12T10:25:32.633Z,36.13
2018-01-12T10:28:00.984Z,35.40
2018-01-12T10:30:34.717Z,32.90
2018-01-12T10:33:08.553Z,33.47
2018-01-12T10:38:38.004Z,33.83
2018-01-12T10:41:18.816Z,34.20
2018-01-12T10:43:47.168Z,36.70
2018-01-12T10:46:35.235Z,33.90
2018-01-12T10:49:19.184Z,33.37
2018-01-12T10:51:47.871Z,30.77
2018-01-12T10:54:16.217Z,31.90
2018-01-12T10:56:44.574Z,31.97
2018-01-12T10:59:12.950Z,31.97
2018-01-12T11:01:41.694Z,31.33
2018-01-12T11:04:10.078Z,33.10
2018-01-12T11:06:38.431Z,32.90
2018-01-12T11:09:06.779Z,32.83
2018-01-12T11:11:35.129Z,31.20
2018-01-12T11:14:03.489Z,31.73
2018-01-12T11:16:31.851Z,31.50
2018-01-12T11:19:00.187Z,32.60
2018-01-12T11:21:29.023Z,32.67
2018-01-12T11:23:57.398Z,31.77
2018-01-12T11:26:25.751Z,33.20
2018-01-12T11:28:54.095Z,33.70
2018-01-12T11:31:22.517Z,32.00
2018-01-12T11:33:50.921Z,32.60
2018-01-12T11:36:19.287Z,34.10
2018-01-12T11:38:47.627Z,31.17
2018-01-12T11:41:16.470Z,32.80
2018-01-12T11:43:44.820Z,33.37
2018-01-12T11:46:13.215Z,32.53
2018-01-12T11:48:41.572Z,32.40
2018-01-12T11:51:09.929Z,32.00
2018-01-12T11:53:38.763Z,31.20
2018-01-12T11:56:07.116Z,34.80
2018-01-12T11:58:35.528Z,31.77
2018-01-12T12:01:03.892Z,32.13
2018-01-12T12:03:32.261Z,31.97
2018-01-12T12:06:00.607Z,34.77
2018-01-12T12:08:29.035Z,32.57
2018-01-12T12:10:57.496Z,33.20
2018-01-12T12:13:25.852Z,32.40
2018-01-12T12:15:54.691Z,34.57
2018-01-12T12:18:23.064Z,33.40
2018-01-12T12:20:51.464Z,33.10
2018-01-12T12:23:19.868Z,34.60
2018-01-12T12:25:48.625Z,30.90
2018-01-12T12:28:16.999Z,30.93
2018-01-12T12:30:45.371Z,33.27
2018-01-12T12:33:13.715Z,31.43
2018-01-12T12:35:42.228Z,31.43
2018-01-12T12:38:10.575Z,33.80
2018-01-12T12:40:38.933Z,34.37
2018-01-12T12:43:07.674Z,34.03
2018-01-12T12:45:36.032Z,31.73
2018-01-12T12:48:04.427Z,33.73
2018-01-12T12:50:32.838Z,36.13
2018-01-12T12:53:01.265Z,34.50
2018-01-12T12:55:29.633Z,33.67
2018-01-12T12:57:58.046Z,39.20
2018-01-12T13:00:26.408Z,34.50
2018-01-12T13:02:54.763Z,33.13
2018-01-12T13:05:23.598Z,32.53
2018-01-12T13:07:52.053Z,32.50
2018-01-12T13:10:20.457Z,31.50
2018-01-12T13:12:48.804Z,34.13
2018-01-12T13:15:17.161Z,34.83
2018-01-12T13:17:45.905Z,35.10
2018-01-12T13:20:14.271Z,33.13
2018-01-12T13:22:42.615Z,35.47
2018-01-12T13:25:11.051Z,37.07
2018-01-12T13:27:39.432Z,35.83
2018-01-12T13:30:07.903Z,34.50
2018-01-12T13:32:36.251Z,34.33
2018-01-12T13:35:04.626Z,36.10
2018-01-12T13:37:32.970Z,37.23
2018-01-12T13:40:01.870Z,34.70
2018-01-12T13:42:30.685Z,36.93
2018-01-12T13:44:59.064Z,33.70
2018-01-12T13:47:27.427Z,34.77
2018-01-12T13:49:55.839Z,35.77
2018-01-12T13:52:24.199Z,34.20
2018-01-12T13:54:52.594Z,34.07
2018-01-12T13:57:20.962Z,34.50
2018-01-12T13:59:49.360Z,33.70
2018-01-12T14:02:17.789Z,33.10
2018-01-12T14:04:46.631Z,38.13
2018-01-12T14:07:14.984Z,35.90
2018-01-12T14:09:43.338Z,38.47
2018-01-12T14:12:12.115Z,36.47
2018-01-12T14:14:40.987Z,37.57
2018-01-12T14:17:09.359Z,34.00
2018-01-12T14:19:37.710Z,33.00
2018-01-12T14:22:06.074Z,36.80
2018-01-12T14:24:34.428Z,31.67
2018-01-12T14:27:03.262Z,31.50
2018-01-12T14:29:31.618Z,36.17
2018-01-12T14:32:00.026Z,32.30
2018-01-12T14:34:28.482Z,35.37
2018-01-12T14:36:56.843Z,35.63
2018-01-12T14:39:25.677Z,35.77
2018-01-12T14:41:54.042Z,35.53
2018-01-12T14:44:22.489Z,34.80
2018-01-12T14:46:50.818Z,35.57
2018-01-12T14:49:19.179Z,36.70
2018-01-12T14:51:47.527Z,34.13
2018-01-12T14:54:15.880Z,36.83
2018-01-12T14:56:44.229Z,37.47
2018-01-12T14:59:12.579Z,36.63
2018-01-12T15:01:40.991Z,37.50
2018-01-12T15:04:09.379Z,40.07
2018-01-12T15:06:37.750Z,38.30
2018-01-12T15:09:06.115Z,36.27
2018-01-12T15:11:34.496Z,37.93
2018-01-12T15:14:02.844Z,36.87
2018-01-12T15:16:31.253Z,38.20
2018-01-12T15:18:59.598Z,36.10
2018-01-12T15:21:27.989Z,39.30
2018-01-12T15:23:56.382Z,39.43
2018-01-12T15:26:24.735Z,38.97
2018-01-12T15:28:53.091Z,39.50
2018-01-12T15:31:21.935Z,39.67
2018-01-12T15:33:50.314Z,40.00
2018-01-12T15:36:18.692Z,39.10
2018-01-12T15:38:47.048Z,37.53
2018-01-12T15:41:15.606Z,40.43
2018-01-12T15:43:44.454Z,39.17
2018-01-12T15:46:12.947Z,40.27
2018-01-12T15:48:41.353Z,41.37
2018-01-12T15:51:09.671Z,39.47
2018-01-12T15:53:38.035Z,38.23
2018-01-12T15:56:06.439Z,44.27
2018-01-12T15:58:34.787Z,38.00
2018-01-12T16:01:03.138Z,40.80
2018-01-12T16:03:31.998Z,42.60
2018-01-12T16:06:00.365Z,43.10
2018-01-12T16:08:28.862Z,42.97
2018-01-12T16:10:57.352Z,43.07
2018-01-12T16:13:25.815Z,42.47
2018-01-12T16:15:54.285Z,46.07
2018-01-12T16:18:22.666Z,44.73
2018-01-12T16:20:51.011Z,44.73
2018-01-12T16:23:19.425Z,43.00
2018-01-12T16:25:47.805Z,43.53
2018-01-12T16:28:16.193Z,44.70
2018-01-12T16:30:44.552Z,43.10
2018-01-12T16:33:12.902Z,43.57
2018-01-12T16:35:41.319Z,46.50
2018-01-12T16:38:09.678Z,44.70
2018-01-12T16:40:38.041Z,46.17
2018-01-12T16:43:06.392Z,44.43
2018-01-12T16:45:34.764Z,45.00
2018-01-12T16:48:03.216Z,44.70
2018-01-12T16:50:31.575Z,45.07
2018-01-12T16:52:59.927Z,45.60
2018-01-12T16:55:28.361Z,46.67
2018-01-12T16:57:56.749Z,45.70
2018-01-12T17:00:25.235Z,47.13
2018-01-12T17:02:53.779Z,45.37
2018-01-12T17:05:22.259Z,44.30
2018-01-12T17:07:50.652Z,45.57
2018-01-12T17:10:19.048Z,46.67
2018-01-12T17:12:47.407Z,43.70
2018-01-12T17:15:15.772Z,44.40
2018-01-12T17:17:44.261Z,44.70
2018-01-12T17:20:12.669Z,45.87
2018-01-12T17:22:41.036Z,44.07
2018-01-12T17:25:09.392Z,42.17
2018-01-12T17:27:37.759Z,43.13
2018-01-12T17:30:06.126Z,42.17
2018-01-12T17:32:34.488Z,43.20
2018-01-12T17:35:03.233Z,40.40
2018-01-12T17:37:31.726Z,37.80
2018-01-12T17:40:00.083Z,39.63
2018-01-12T17:42:28.444Z,40.10
2018-01-12T17:44:56.791Z,41.87
2018-01-12T17:47:25.555Z,40.90
2018-01-12T17:49:54.008Z,41.50
2018-01-12T17:52:22.387Z,39.60
2018-01-12T17:54:50.767Z,40.77
2018-01-12T17:57:19.158Z,39.90
2018-01-12T17:59:47.518Z,39.77
2018-01-12T18:02:15.871Z,38.27
2018-01-12T18:04:44.227Z,39.73
2018-01-12T18:07:13.068Z,39.13
2018-01-12T18:09:41.531Z,36.93
2018-01-12T18:12:09.867Z,42.07
2018-01-12T18:14:38.234Z,40.30
2018-01-12T18:17:06.615Z,40.90
2018-01-12T18:19:35.046Z,41.37
2018-01-12T18:22:03.395Z,41.90
2018-01-12T18:24:32.151Z,39.70
2018-01-12T18:27:00.530Z,39.57
2018-01-12T18:29:28.904Z,42.67
2018-01-12T18:31:57.280Z,43.10
2018-01-12T18:34:25.635Z,41.33
2018-01-12T18:36:54.038Z,43.20
2018-01-12T18:39:22.507Z,43.17
2018-01-12T18:41:50.865Z,37.73
2018-01-12T18:44:19.219Z,42.23
2018-01-12T18:46:47.976Z,39.73
2018-01-12T18:49:16.327Z,40.27
2018-01-12T18:51:44.680Z,43.00
2018-01-12T18:54:13.088Z,41.73
2018-01-12T18:56:41.523Z,42.43
2018-01-12T18:59:10.283Z,39.30
2018-01-12T19:01:38.736Z,40.17
2018-01-12T19:04:07.223Z,41.80
2018-01-12T19:06:35.605Z,42.33
2018-01-12T19:09:03.957Z,41.00
2018-01-12T19:11:32.351Z,42.10
2018-01-12T19:14:00.735Z,42.90
2018-01-12T19:16:29.088Z,42.47
2018-01-12T19:18:57.672Z,41.53
2018-01-12T19:21:26.077Z,42.97
2018-01-12T19:23:54.422Z,43.60
2018-01-12T19:26:22.779Z,44.93
2018-01-12T19:28:51.532Z,42.90
2018-01-12T19:31:19.909Z,44.70
2018-01-12T19:33:48.265Z,46.10
2018-01-12T19:36:16.638Z,43.20
2018-01-12T19:38:45.038Z,48.07
2018-01-12T19:41:13.409Z,46.13
2018-01-12T19:43:41.759Z,46.90
2018-01-12T19:46:10.167Z,46.83
2018-01-12T19:48:38.529Z,48.83
2018-01-12T19:51:06.913Z,45.10
2018-01-12T19:53:35.268Z,45.23
2018-01-12T19:56:03.622Z,46.93
2018-01-12T19:58:32.400Z,49.40
2018-01-12T20:01:00.746Z,46.57
2018-01-12T20:03:29.097Z,52.57
2018-01-12T20:05:57.453Z,52.33
2018-01-12T20:08:26.200Z,47.17
2018-01-12T20:10:54.587Z,50.50
2018-01-12T20:13:22.954Z,48.40
2018-01-12T20:15:51.318Z,49.40
2018-01-12T20:18:19.666Z,47.83
2018-01-12T20:20:48.033Z,50.50
2018-01-12T20:23:16.771Z,48.93
2018-01-12T20:25:45.138Z,48.00
2018-01-12T20:28:13.488Z,50.97
2018-01-12T20:30:41.838Z,57.87
2018-01-12T20:33:10.191Z,45.60
2018-01-12T20:35:38.560Z,51.77
2018-01-12T20:38:06.918Z,49.60
2018-01-12T20:40:35.284Z,47.07
2018-01-12T20:43:03.631Z,51.30
2018-01-12T20:45:31.995Z,48.97
2018-01-12T20:48:00.354Z,48.70
2018-01-12T20:50:28.719Z,50.27
2018-01-12T20:52:57.070Z,48.47
2018-01-12T20:55:25.446Z,49.20
2018-01-12T20:57:53.804Z,48.47
2018-01-12T21:00:22.163Z,51.17
2018-01-12T21:02:50.514Z,50.10
2018-01-12T21:05:18.884Z,51.43
2018-01-12T21:07:47.227Z,51.13
2018-01-12T21:10:15.981Z,54.20
2018-01-12T21:12:44.339Z,49.70
2018-01-12T21:15:12.721Z,49.30
2018-01-12T21:17:41.096Z,49.40
2018-01-12T21:20:09.442Z,52.70
2018-01-12T21:22:38.198Z,51.83
2018-01-12T21:25:06.559Z,53.77
2018-01-12T21:27:34.918Z,53.57
2018-01-12T21:30:03.289Z,51.20
2018-01-12T21:32:31.639Z,49.03
2018-01-12T21:34:59.981Z,47.07
2018-01-12T21:37:28.432Z,48.60
2018-01-12T21:39:56.779Z,49.10
2018-01-12T21:42:25.542Z,50.63
2018-01-12T21:44:53.987Z,53.90
2018-01-12T21:47:22.347Z,50.00
2018-01-12T21:49:50.704Z,47.60
2018-01-12T21:52:19.068Z,49.57
2018-01-12T21:54:47.923Z,51.63
2018-01-12T21:57:16.285Z,50.83
2018-01-12T21:59:44.650Z,50.90
2018-01-12T22:02:13.021Z,50.43
2018-01-12T22:04:41.429Z,54.00
2018-01-12T22:07:09.800Z,51.77
2018-01-12T22:09:38.193Z,48.80
2018-01-12T22:12:06.667Z,50.90
2018-01-12T22:14:35.046Z,51.83
2018-01-12T22:17:03.416Z,53.13
2018-01-12T22:19:31.803Z,49.60
2018-01-12T22:22:00.156Z,50.80
2018-01-12T22:24:28.560Z,50.97
2018-01-12T22:26:56.945Z,49.20
2018-01-12T22:29:25.303Z,53.17
2018-01-12T22:31:53.672Z,53.20
2018-01-12T22:34:22.023Z,49.27
2018-01-12T22:36:50.379Z,50.30
2018-01-12T22:39:18.750Z,49.23
2018-01-12T22:41:47.316Z,52.30
2018-01-12T22:44:15.679Z,53.87
2018-01-12T22:46:44.054Z,51.37
2018-01-12T22:49:12.407Z,50.40
2018-01-12T22:51:40.772Z,50.03
2018-01-12T22:54:09.527Z,51.47
2018-01-12T22:56:38.003Z,50.00
2018-01-12T22:59:06.376Z,50.80
2018-01-12T23:01:34.730Z,52.13
2018-01-12T23:04:03.141Z,51.20
2018-01-12T23:06:31.564Z,54.00
2018-01-12T23:09:01.227Z,52.80
2018-01-12T23:11:29.655Z,53.23
2018-01-12T23:13:58.417Z,52.40
2018-01-12T23:16:26.771Z,50.60
2018-01-12T23:18:55.135Z,50.07
2018-01-12T23:21:23.534Z,53.47
2018-01-12T23:23:51.927Z,50.50
2018-01-12T23:26:20.395Z,48.37
2018-01-12T23:28:48.772Z,50.40
2018-01-12T23:31:17.143Z,47.40
2018-01-12T23:33:45.536Z,45.13
2018-01-12T23:36:13.941Z,49.30
2018-01-12T23:38:42.699Z,47.90
2018-01-12T23:41:11.080Z,48.23
2018-01-12T23:43:39.464Z,50.97
2018-01-12T23:46:07.841Z,50.40
2018-01-12T23:48:36.211Z,50.90
2018-01-12T23:51:04.695Z,49.90
2018-01-12T23:53:33.051Z,50.50
2018-01-12T23:56:01.436Z,49.50
2018-01-12T23:58:29.786Z,52.90
